Terminal Aerodrome Forecast
Issued by NWS

Home | Current Version | Previous Version | Text Only | Print | Product List | Glossary On
Versions: 1 2 3 4 5 6 7 8 9 10 11 12 13 14 15 16 17 18 19 20 21 22 23 24 25 26 27 28 29 30 31 32 33 34 35 36 37 38 39 40 41 42 43 44 45 46 47 48 49
000
FTUS44 KHGX 191302 AAA
TAFSGR
TAF AMD
KSGR 191302Z 1913/2012 VRB03KT P6SM VCSH SCT012 BKN060 BKN250
      TEMPO 1913/1914 VRB15G22KT 1/2SM TSRA FG BKN007CB
     FM191400 12006KT P6SM VCSH FEW007 BKN020 BKN060
     FM192100 12009KT P6SM VCTS SCT025CB BKN060
     FM200000 10005KT P6SM SCT030 BKN100
     FM200600 09004KT P6SM BKN020=

USA.gov is the U.S. government's official web portal to all federal, state and local government web resources and services.